createdAt,value
2018-07-28T00:02:00.790Z,100728.26
2018-07-28T00:05:08.566Z,100730.72
2018-07-28T00:08:15.339Z,100727.72
2018-07-28T00:11:21.018Z,100718.37
2018-07-28T00:14:26.583Z,100714.61
2018-07-28T00:17:32.175Z,100710.50
2018-07-28T00:20:38.177Z,100709.80
2018-07-28T00:23:45.242Z,100699.64
2018-07-28T00:26:52.131Z,100686.05
2018-07-28T00:29:59.106Z,100685.54
2018-07-28T00:33:05.086Z,100683.20
2018-07-28T00:36:10.997Z,100684.34
2018-07-28T00:39:17.890Z,100676.30
2018-07-28T00:42:23.065Z,100674.28
2018-07-28T00:45:28.215Z,100671.33
2018-07-28T00:48:35.307Z,100670.33
2018-07-28T00:51:41.326Z,100665.53
2018-07-28T00:54:46.222Z,100661.58
2018-07-28T00:57:51.997Z,100647.98
2018-07-28T01:00:57.788Z,100650.27
2018-07-28T01:04:03.852Z,100643.52
2018-07-28T01:07:09.843Z,100645.29
2018-07-28T01:10:16.645Z,100634.80
2018-07-28T01:13:22.248Z,100638.30
2018-07-28T01:16:27.654Z,100627.17
2018-07-28T01:19:33.836Z,100620.79
2018-07-28T01:22:40.352Z,100616.97
2018-07-28T01:25:45.246Z,100622.50
2018-07-28T01:28:59.592Z,100614.14
2018-07-28T01:32:04.471Z,100617.67
2018-07-28T01:35:10.211Z,100605.24
2018-07-28T01:38:16.375Z,100609.47
2018-07-28T01:41:21.688Z,100608.31
2018-07-28T01:44:28.562Z,100598.61
2018-07-28T01:47:34.291Z,100598.25
2018-07-28T01:50:40.400Z,100590.41
2018-07-28T01:53:47.720Z,100581.91
2018-07-28T01:56:54.828Z,100571.88
2018-07-28T02:00:00.339Z,100572.81
2018-07-28T02:03:05.230Z,100572.30
2018-07-28T02:06:10.171Z,100570.84
2018-07-28T02:09:17.257Z,100567.19
2018-07-28T02:12:24.468Z,100563.58
2018-07-28T02:15:30.495Z,100564.22
2018-07-28T02:18:36.909Z,100551.45
2018-07-28T02:21:42.464Z,100555.53
2018-07-28T02:24:48.403Z,100549.27
2018-07-28T02:27:54.007Z,100534.72
2018-07-28T02:30:59.187Z,100534.53
2018-07-28T02:34:05.106Z,100539.58
2018-07-28T02:37:11.403Z,100537.34
2018-07-28T02:40:18.350Z,100530.64
2018-07-28T02:43:39.726Z,100524.11
2018-07-28T02:46:44.972Z,100525.37
2018-07-28T02:49:52.129Z,100527.29
2018-07-28T02:52:57.368Z,100525.65
2018-07-28T02:56:02.800Z,100520.06
2018-07-28T02:59:09.880Z,100514.98
2018-07-28T03:02:15.711Z,100514.16
2018-07-28T03:05:22.946Z,100511.06
2018-07-28T03:08:28.471Z,100507.72
2018-07-28T03:11:35.203Z,100499.55
2018-07-28T03:14:40.962Z,100501.98
2018-07-28T03:17:46.124Z,100496.42
2018-07-28T03:20:51.895Z,100494.94
2018-07-28T03:23:58.556Z,100494.38
2018-07-28T03:27:05.583Z,100494.05
2018-07-28T03:30:12.108Z,100494.68
2018-07-28T03:33:18.407Z,100490.58
2018-07-28T03:36:23.266Z,100487.63
2018-07-28T03:39:28.575Z,100485.51
2018-07-28T03:42:35.172Z,100484.47
2018-07-28T03:45:40.705Z,100482.64
2018-07-28T03:48:46.863Z,100475.00
2018-07-28T03:51:53.695Z,100476.60
2018-07-28T03:55:01.748Z,100474.81
2018-07-28T03:58:07.008Z,100475.30
2018-07-28T04:01:12.852Z,100463.70
2018-07-28T04:04:18.052Z,100463.41
2018-07-28T04:07:23.391Z,100470.41
2018-07-28T04:10:29.546Z,100461.77
2018-07-28T04:13:36.616Z,100466.05
2018-07-28T04:16:42.478Z,100462.13
2018-07-28T04:19:48.537Z,100452.66
2018-07-28T04:22:55.558Z,100454.13
2018-07-28T04:26:01.635Z,100443.64
2018-07-28T04:29:07.329Z,100434.70
2018-07-28T04:32:12.964Z,100438.61
2018-07-28T04:35:18.219Z,100433.42
2018-07-28T04:38:24.271Z,100430.36
2018-07-28T04:41:29.515Z,100438.04
2018-07-28T04:44:35.683Z,100437.22
2018-07-28T04:47:41.563Z,100435.58
2018-07-28T04:50:47.119Z,100440.69
2018-07-28T04:53:52.907Z,100436.92
2018-07-28T04:56:59.934Z,100436.28
2018-07-28T05:00:06.284Z,100429.94
2018-07-28T05:03:11.463Z,100427.17
2018-07-28T05:06:17.521Z,100426.58
2018-07-28T05:09:23.890Z,100427.23
2018-07-28T05:12:29.042Z,100418.77
2018-07-28T05:15:33.927Z,100427.76
2018-07-28T05:18:39.953Z,100429.73
2018-07-28T05:21:45.854Z,100430.06
2018-07-28T05:24:52.116Z,100426.02
2018-07-28T05:27:58.132Z,100412.33
2018-07-28T05:31:04.175Z,100408.11
2018-07-28T05:34:10.044Z,100401.77
2018-07-28T05:37:16.148Z,100397.54
2018-07-28T05:40:22.269Z,100393.67
2018-07-28T05:43:27.134Z,100388.14
2018-07-28T05:46:32.876Z,100390.97
2018-07-28T05:49:39.259Z,100391.36
2018-07-28T05:52:45.203Z,100377.02
2018-07-28T05:55:52.017Z,100365.80
2018-07-28T05:58:58.219Z,100370.06
2018-07-28T06:02:03.394Z,100368.28
2018-07-28T06:05:09.223Z,100363.77
2018-07-28T06:08:14.388Z,100364.61
2018-07-28T06:11:19.907Z,100371.67
2018-07-28T06:14:25.755Z,100374.30
2018-07-28T06:17:31.004Z,100376.94
2018-07-28T06:20:36.137Z,100369.96
2018-07-28T06:23:41.012Z,100365.56
2018-07-28T06:26:46.847Z,100364.96
2018-07-28T06:29:51.715Z,100371.34
2018-07-28T06:32:57.322Z,100366.98
2018-07-28T06:36:05.012Z,100370.27
2018-07-28T06:39:12.351Z,100367.07
2018-07-28T06:42:17.236Z,100363.81
2018-07-28T06:45:23.116Z,100360.25
2018-07-28T06:48:28.634Z,100366.84
2018-07-28T06:51:34.531Z,100362.92
2018-07-28T06:54:39.435Z,100363.25
2018-07-28T06:57:44.819Z,100358.05
2018-07-28T07:00:49.891Z,100360.50
2018-07-28T07:03:55.032Z,100357.43
2018-07-28T07:07:00.807Z,100358.41
2018-07-28T07:10:06.305Z,100353.20
2018-07-28T07:13:12.176Z,100350.91
2018-07-28T07:16:17.703Z,100356.33
2018-07-28T07:19:22.604Z,100358.19
2018-07-28T07:22:28.765Z,100362.13
2018-07-28T07:25:33.635Z,100363.11
2018-07-28T07:28:39.456Z,100359.84
2018-07-28T07:31:44.675Z,100364.25
2018-07-28T07:34:50.562Z,100356.89
2018-07-28T07:37:55.444Z,100351.66
2018-07-28T07:41:00.341Z,100347.73
2018-07-28T07:44:05.699Z,100349.02
2018-07-28T07:47:10.627Z,100339.36
2018-07-28T07:50:16.689Z,100331.49
2018-07-28T07:53:22.579Z,100322.80
2018-07-28T07:56:28.103Z,100315.06
2018-07-28T07:59:33.907Z,100317.84
2018-07-28T08:02:38.763Z,100317.30
2018-07-28T08:05:44.367Z,100320.40
2018-07-28T08:08:51.211Z,100309.06
2018-07-28T08:11:56.920Z,100299.18
2018-07-28T08:15:02.843Z,100299.78
2018-07-28T08:18:08.897Z,100304.50
2018-07-28T08:21:14.620Z,100308.89
2018-07-28T08:24:19.955Z,100303.88
2018-07-28T08:27:25.182Z,100295.78
2018-07-28T08:30:30.066Z,100300.80
2018-07-28T08:33:37.195Z,100291.37
2018-07-28T08:36:42.100Z,100289.34
2018-07-28T08:39:47.385Z,100287.32
2018-07-28T08:42:52.372Z,100280.37
2018-07-28T08:45:57.733Z,100284.37
2018-07-28T08:49:02.650Z,100274.92
2018-07-28T08:52:07.796Z,100274.34
2018-07-28T08:55:13.756Z,100279.19
2018-07-28T08:58:19.668Z,100287.13
2018-07-28T09:01:26.310Z,100291.95
2018-07-28T09:04:32.102Z,100299.77
2018-07-28T09:07:37.919Z,100301.94
2018-07-28T09:10:43.530Z,100303.78
2018-07-28T09:13:49.403Z,100303.00
2018-07-28T09:16:54.986Z,100307.48
2018-07-28T09:20:00.963Z,100304.05
2018-07-28T09:23:06.423Z,100306.42
2018-07-28T09:26:12.862Z,100304.77
2018-07-28T09:29:18.605Z,100300.33
2018-07-28T09:32:24.431Z,100309.75
2018-07-28T09:35:29.671Z,100292.13
2018-07-28T09:38:34.647Z,100282.08
2018-07-28T09:41:40.375Z,100269.39
2018-07-28T09:44:45.975Z,100264.33
2018-07-28T09:47:51.788Z,100265.11
2018-07-28T09:50:57.560Z,100271.78
2018-07-28T09:54:02.459Z,100271.55
2018-07-28T09:57:08.409Z,100273.52
2018-07-28T10:00:18.813Z,100263.94
2018-07-28T10:03:25.193Z,100258.34
2018-07-28T10:06:30.264Z,100251.70
2018-07-28T10:09:36.150Z,100244.52
2018-07-28T10:12:41.995Z,100244.84
2018-07-28T10:15:47.693Z,100233.08
2018-07-28T10:18:53.536Z,100240.08
2018-07-28T10:21:58.418Z,100236.34
2018-07-28T10:25:03.824Z,100221.70
2018-07-28T10:28:10.967Z,100229.22
2018-07-28T10:31:16.839Z,100229.14
2018-07-28T10:34:22.780Z,100222.00
2018-07-28T10:37:29.279Z,100213.99
2018-07-28T10:40:34.983Z,100207.78
2018-07-28T10:43:39.846Z,100197.73
2018-07-28T10:46:45.651Z,100192.23
2018-07-28T10:49:52.712Z,100197.70
2018-07-28T10:52:58.192Z,100188.66
2018-07-28T10:56:03.103Z,100185.59
2018-07-28T10:59:08.971Z,100185.68
2018-07-28T11:02:15.478Z,100187.42
2018-07-28T11:05:20.382Z,100192.67
2018-07-28T11:08:25.771Z,100194.20
2018-07-28T11:11:30.682Z,100193.48
2018-07-28T11:14:35.659Z,100179.09
2018-07-28T11:17:41.103Z,100177.59
2018-07-28T11:20:46.257Z,100174.73
2018-07-28T11:23:56.947Z,100179.81
2018-07-28T11:27:02.282Z,100174.69
2018-07-28T11:30:09.722Z,100174.03
2018-07-28T11:33:26.676Z,100162.29
2018-07-28T11:36:43.684Z,100171.42
2018-07-28T11:40:00.327Z,100164.19
2018-07-28T11:43:17.087Z,100167.22
2018-07-28T11:46:22.963Z,100162.11
2018-07-28T11:49:28.751Z,100162.06
2018-07-28T11:52:33.651Z,100152.98
2018-07-28T11:55:40.310Z,100144.09
2018-07-28T11:58:47.208Z,100142.13
2018-07-28T12:01:52.875Z,100130.61
2018-07-28T12:04:58.951Z,100137.09
2018-07-28T12:08:05.024Z,100135.92
2018-07-28T12:11:10.700Z,100131.65
2018-07-28T12:14:15.572Z,100132.31
2018-07-28T12:17:20.782Z,100131.91
2018-07-28T12:20:26.604Z,100121.17
2018-07-28T12:23:32.349Z,100120.50
2018-07-28T12:26:37.256Z,100105.01
2018-07-28T12:29:42.479Z,100094.70
2018-07-28T12:32:48.263Z,100091.62
2018-07-28T12:35:53.943Z,100087.52
2018-07-28T12:38:59.673Z,100082.66
2018-07-28T12:42:04.539Z,100073.84
2018-07-28T12:45:09.795Z,100080.09
2018-07-28T12:48:15.707Z,100075.26
2018-07-28T12:51:36.303Z,100067.53
2018-07-28T12:54:41.703Z,100051.80
2018-07-28T12:57:47.631Z,100055.16
2018-07-28T13:00:53.707Z,100052.67
2018-07-28T13:03:59.597Z,100047.30
2018-07-28T13:07:05.615Z,100058.33
2018-07-28T13:10:11.240Z,100061.95
2018-07-28T13:13:17.203Z,100058.96
2018-07-28T13:16:22.068Z,100062.67
2018-07-28T13:19:27.026Z,100051.47
2018-07-28T13:22:32.229Z,100063.39
2018-07-28T13:25:37.128Z,100063.80
2018-07-28T13:28:42.935Z,100055.38
2018-07-28T13:31:48.861Z,100057.89
2018-07-28T13:34:54.325Z,100050.79
2018-07-28T13:37:59.625Z,100049.75
2018-07-28T13:41:05.499Z,100055.81
2018-07-28T13:44:10.375Z,100056.98
2018-07-28T13:47:15.262Z,100061.43
2018-07-28T13:50:21.126Z,100072.58
2018-07-28T13:53:26.065Z,100074.53
2018-07-28T13:56:32.314Z,100077.78
2018-07-28T13:59:39.688Z,100106.64
2018-07-28T14:02:45.191Z,100183.33
2018-07-28T14:05:50.108Z,100155.28
2018-07-28T14:08:56.009Z,100181.49
2018-07-28T14:12:01.498Z,100200.50
2018-07-28T14:15:08.668Z,100207.77
2018-07-28T14:18:15.874Z,100196.94
2018-07-28T14:21:20.975Z,100200.05
2018-07-28T14:24:26.879Z,100210.23
2018-07-28T14:27:32.644Z,100221.08
2018-07-28T14:30:38.574Z,100237.93
2018-07-28T14:33:44.383Z,100263.84
2018-07-28T14:36:51.475Z,100283.31
2018-07-28T14:39:57.207Z,100267.87
2018-07-28T14:43:02.360Z,100252.12
2018-07-28T14:46:08.147Z,100261.91
2018-07-28T14:49:13.067Z,100269.40
2018-07-28T14:52:17.971Z,100269.41
2018-07-28T14:55:22.935Z,100293.70
2018-07-28T14:58:27.832Z,100313.38
2018-07-28T15:01:32.691Z,100309.13
2018-07-28T15:04:38.466Z,100305.01
2018-07-28T15:07:43.963Z,100310.77
2018-07-28T15:10:49.782Z,100300.48
2018-07-28T15:13:54.718Z,100291.47
2018-07-28T15:17:00.819Z,100279.72
2018-07-28T15:20:06.871Z,100269.76
2018-07-28T15:23:13.056Z,100264.06
2018-07-28T15:26:18.274Z,100270.45
2018-07-28T15:29:25.451Z,100266.28
2018-07-28T15:32:31.180Z,100290.02
2018-07-28T15:35:38.215Z,100297.66
2018-07-28T15:38:43.934Z,100292.13
2018-07-28T15:41:50.958Z,100300.70
2018-07-28T15:44:56.629Z,100296.36
2018-07-28T15:48:02.074Z,100281.77
2018-07-28T15:51:08.128Z,100309.27
2018-07-28T15:54:13.919Z,100322.94
2018-07-28T15:57:19.124Z,100315.70
2018-07-28T16:00:26.288Z,100301.62
2018-07-28T16:03:32.316Z,100295.77
2018-07-28T16:06:38.255Z,100303.70
2018-07-28T16:09:43.980Z,100290.44
2018-07-28T16:12:50.341Z,100291.65
2018-07-28T16:15:55.912Z,100311.87
2018-07-28T16:19:00.773Z,100318.80
2018-07-28T16:22:06.676Z,100323.26
2018-07-28T16:25:12.209Z,100324.54
2018-07-28T16:28:17.062Z,100325.41
2018-07-28T16:31:22.652Z,100323.78
2018-07-28T16:34:28.195Z,100330.05
2018-07-28T16:37:33.771Z,100320.05
2018-07-28T16:40:38.656Z,100341.23
2018-07-28T16:43:43.492Z,100363.42
2018-07-28T16:46:48.375Z,100364.39
2018-07-28T16:49:53.819Z,100365.86
2018-07-28T16:52:59.681Z,100368.01
2018-07-28T16:56:05.756Z,100373.44
2018-07-28T16:59:11.704Z,100379.66
2018-07-28T17:02:17.403Z,100382.28
2018-07-28T17:05:22.272Z,100379.17
2018-07-28T17:08:28.195Z,100388.52
2018-07-28T17:11:34.982Z,100396.19
2018-07-28T17:14:40.410Z,100395.71
2018-07-28T17:17:46.169Z,100402.08
2018-07-28T17:20:51.883Z,100408.80
2018-07-28T17:23:57.379Z,100411.27
2018-07-28T17:27:02.303Z,100418.48
2018-07-28T17:30:07.511Z,100419.94
2018-07-28T17:33:13.212Z,100423.06
2018-07-28T17:36:18.059Z,100432.89
2018-07-28T17:39:23.368Z,100439.77
2018-07-28T17:42:28.208Z,100455.80
2018-07-28T17:45:33.957Z,100449.25
2018-07-28T17:48:39.178Z,100449.09
2018-07-28T17:51:44.971Z,100466.28
2018-07-28T17:54:50.414Z,100475.59
2018-07-28T17:57:56.072Z,100473.79
2018-07-28T18:01:02.884Z,100482.62
2018-07-28T18:04:09.822Z,100483.77
2018-07-28T18:07:15.295Z,100497.17
2018-07-28T18:10:22.112Z,100506.66
2018-07-28T18:13:28.298Z,100502.89
2018-07-28T18:16:34.216Z,100509.61
2018-07-28T18:19:40.226Z,100533.34
2018-07-28T18:22:46.200Z,100533.80
2018-07-28T18:25:52.000Z,100538.05
2018-07-28T18:28:58.683Z,100543.61
2018-07-28T18:32:04.641Z,100551.63
2018-07-28T18:35:10.971Z,100554.17
2018-07-28T18:38:17.321Z,100561.04
2018-07-28T18:41:23.120Z,100569.55
2018-07-28T18:44:28.751Z,100575.09
2018-07-28T18:47:33.665Z,100574.56
2018-07-28T18:50:38.550Z,100563.11
2018-07-28T18:53:43.447Z,100553.61
2018-07-28T18:56:48.401Z,100546.57
2018-07-28T18:59:53.452Z,100552.09
2018-07-28T19:02:58.368Z,100550.77
2018-07-28T19:06:03.312Z,100547.98
2018-07-28T19:09:14.589Z,100542.42
2018-07-28T19:12:26.118Z,100521.93
2018-07-28T19:15:31.459Z,100518.16
2018-07-28T19:18:42.514Z,100522.69
2018-07-28T19:21:48.192Z,100530.86
2018-07-28T19:24:55.381Z,100539.19
2018-07-28T19:28:05.637Z,100551.59
2018-07-28T19:31:10.971Z,100558.25
2018-07-28T19:34:15.884Z,100548.92
2018-07-28T19:37:24.008Z,100554.59
2018-07-28T19:40:29.724Z,100540.52
2018-07-28T19:43:35.921Z,100543.11
2018-07-28T19:46:41.072Z,100558.14
2018-07-28T19:49:46.824Z,100548.08
2018-07-28T19:52:53.918Z,100545.45
2018-07-28T19:56:00.099Z,100574.85
2018-07-28T19:59:06.067Z,100576.92
2018-07-28T20:02:11.890Z,100578.88
2018-07-28T20:05:17.991Z,100602.23
2018-07-28T20:08:23.702Z,100594.20
2018-07-28T20:11:28.607Z,100614.78
2018-07-28T20:14:34.396Z,100644.45
2018-07-28T20:17:39.783Z,100649.98
2018-07-28T20:20:44.662Z,100636.77
2018-07-28T20:23:49.487Z,100649.16
2018-07-28T20:26:55.063Z,100663.48
2018-07-28T20:30:00.288Z,100664.78
2018-07-28T20:33:06.259Z,100664.45
2018-07-28T20:36:11.955Z,100655.30
2018-07-28T20:39:17.854Z,100656.27
2018-07-28T20:42:23.066Z,100645.00
2018-07-28T20:45:28.109Z,100646.61
2018-07-28T20:48:33.347Z,100664.90
2018-07-28T20:51:38.951Z,100672.22
2018-07-28T20:54:43.799Z,100679.73
2018-07-28T20:57:49.588Z,100695.41
2018-07-28T21:00:54.467Z,100692.23
2018-07-28T21:03:59.335Z,100697.95
2018-07-28T21:07:04.828Z,100716.88
2018-07-28T21:10:10.103Z,100728.16
2018-07-28T21:13:15.675Z,100728.64
2018-07-28T21:16:20.596Z,100733.86
2018-07-28T21:19:26.435Z,100726.17
2018-07-28T21:22:31.347Z,100724.53
2018-07-28T21:25:36.216Z,100725.64
2018-07-28T21:28:42.010Z,100735.73
2018-07-28T21:31:48.079Z,100727.17
2018-07-28T21:34:54.907Z,100724.86
2018-07-28T21:38:00.690Z,100731.42
2018-07-28T21:41:06.883Z,100744.55
2018-07-28T21:44:12.571Z,100756.63
2018-07-28T21:47:18.551Z,100764.91
2018-07-28T21:50:23.626Z,100769.59
2018-07-28T21:53:29.387Z,100770.90
2018-07-28T21:56:35.249Z,100779.75
2018-07-28T21:59:40.545Z,100794.20
2018-07-28T22:02:45.975Z,100787.05
2018-07-28T22:05:51.344Z,100794.67
2018-07-28T22:08:56.209Z,100801.61
2018-07-28T22:12:02.128Z,100793.41
2018-07-28T22:15:07.812Z,100800.22
2018-07-28T22:18:12.667Z,100805.44
2018-07-28T22:21:18.214Z,100794.38
2018-07-28T22:24:23.702Z,100801.52
2018-07-28T22:27:28.551Z,100810.03
2018-07-28T22:30:33.651Z,100810.94
2018-07-28T22:33:42.276Z,100820.34
2018-07-28T22:36:47.806Z,100831.60
2018-07-28T22:39:52.669Z,100835.36
2018-07-28T22:42:57.868Z,100849.12
2018-07-28T22:46:03.626Z,100848.55
2018-07-28T22:49:08.491Z,100856.64
2018-07-28T22:52:13.792Z,100858.77
2018-07-28T22:55:18.671Z,100864.60
2018-07-28T22:58:24.443Z,100866.66
2018-07-28T23:01:31.399Z,100875.52
2018-07-28T23:04:37.132Z,100881.69
2018-07-28T23:07:42.991Z,100873.92
2018-07-28T23:10:47.867Z,100866.23
2018-07-28T23:13:54.222Z,100858.01
2018-07-28T23:16:59.106Z,100856.57
2018-07-28T23:20:05.702Z,100861.44
2018-07-28T23:23:11.210Z,100860.62
2018-07-28T23:26:16.096Z,100855.53
2018-07-28T23:29:21.975Z,100859.59
2018-07-28T23:32:26.830Z,100863.02
2018-07-28T23:35:32.272Z,100860.23
2018-07-28T23:38:37.487Z,100856.59
2018-07-28T23:41:43.554Z,100864.20
2018-07-28T23:44:49.156Z,100866.35
2018-07-28T23:47:56.344Z,100852.97
2018-07-28T23:51:02.401Z,100857.36
2018-07-28T23:54:08.413Z,100854.14
2018-07-28T23:57:14.173Z,100852.28
